sensor_id;sensor_type;location;lat;lon;timestamp;temperature;humidity
573;DHT22;271;51.114;13.780;2022-09-09T00:00:55;15.00;1.00
573;DHT22;271;51.114;13.780;2022-09-09T00:03:27;15.00;1.00
573;DHT22;271;51.114;13.780;2022-09-09T00:06:03;15.00;1.00
573;DHT22;271;51.114;13.780;2022-09-09T00:08:41;14.90;1.00
573;DHT22;271;51.114;13.780;2022-09-09T00:11:21;14.80;1.00
573;DHT22;271;51.114;13.780;2022-09-09T00:13:52;14.80;1.00
573;DHT22;271;51.114;13.780;2022-09-09T00:16:23;14.80;1.00
573;DHT22;271;51.114;13.780;2022-09-09T00:18:56;14.70;1.00
573;DHT22;271;51.114;13.780;2022-09-09T00:21:31;14.70;1.00
573;DHT22;271;51.114;13.780;2022-09-09T00:23:59;14.70;1.00
573;DHT22;271;51.114;13.780;2022-09-09T00:26:33;14.70;1.00
573;DHT22;271;51.114;13.780;2022-09-09T00:29:05;14.70;1.00
573;DHT22;271;51.114;13.780;2022-09-09T00:31:36;14.70;1.00
573;DHT22;271;51.114;13.780;2022-09-09T00:34:12;14.60;1.00
573;DHT22;271;51.114;13.780;2022-09-09T00:36:40;14.60;1.00
573;DHT22;271;51.114;13.780;2022-09-09T00:39:12;14.60;1.00
573;DHT22;271;51.114;13.780;2022-09-09T00:41:51;14.50;1.00
573;DHT22;271;51.114;13.780;2022-09-09T00:44:30;14.40;1.00
573;DHT22;271;51.114;13.780;2022-09-09T00:47:09;14.50;1.00
573;DHT22;271;51.114;13.780;2022-09-09T00:49:44;14.50;1.00
573;DHT22;271;51.114;13.780;2022-09-09T00:52:24;14.40;1.00
573;DHT22;271;51.114;13.780;2022-09-09T00:55:00;14.50;1.00
573;DHT22;271;51.114;13.780;2022-09-09T00:57:32;14.50;1.00
573;DHT22;271;51.114;13.780;2022-09-09T01:00:17;14.50;1.00
573;DHT22;271;51.114;13.780;2022-09-09T01:02:53;14.50;1.00
573;DHT22;271;51.114;13.780;2022-09-09T01:05:29;14.50;1.00
573;DHT22;271;51.114;13.780;2022-09-09T01:08:02;14.40;1.00
573;DHT22;271;51.114;13.780;2022-09-09T01:10:38;14.40;1.00
573;DHT22;271;51.114;13.780;2022-09-09T01:13:15;14.40;1.00
573;DHT22;271;51.114;13.780;2022-09-09T01:15:44;14.40;1.00
573;DHT22;271;51.114;13.780;2022-09-09T01:18:17;14.40;1.00
573;DHT22;271;51.114;13.780;2022-09-09T01:20:51;14.30;1.00
573;DHT22;271;51.114;13.780;2022-09-09T01:23:39;14.30;1.00
573;DHT22;271;51.114;13.780;2022-09-09T01:26:15;14.30;1.00
573;DHT22;271;51.114;13.780;2022-09-09T01:28:46;14.20;1.00
573;DHT22;271;51.114;13.780;2022-09-09T01:31:16;14.30;1.00
573;DHT22;271;51.114;13.780;2022-09-09T01:33:44;14.30;1.00
573;DHT22;271;51.114;13.780;2022-09-09T01:36:14;14.30;1.00
573;DHT22;271;51.114;13.780;2022-09-09T01:38:51;14.40;1.00
573;DHT22;271;51.114;13.780;2022-09-09T01:41:19;14.40;1.00
573;DHT22;271;51.114;13.780;2022-09-09T01:43:47;14.50;1.00
573;DHT22;271;51.114;13.780;2022-09-09T01:46:15;14.50;1.00
573;DHT22;271;51.114;13.780;2022-09-09T01:48:43;14.50;1.00
573;DHT22;271;51.114;13.780;2022-09-09T01:51:10;14.50;1.00
573;DHT22;271;51.114;13.780;2022-09-09T01:53:37;14.50;1.00
573;DHT22;271;51.114;13.780;2022-09-09T01:56:12;14.50;1.00
573;DHT22;271;51.114;13.780;2022-09-09T01:58:52;14.50;1.00
573;DHT22;271;51.114;13.780;2022-09-09T02:01:28;14.50;1.00
573;DHT22;271;51.114;13.780;2022-09-09T02:04:04;14.50;1.00
573;DHT22;271;51.114;13.780;2022-09-09T02:06:36;14.50;1.00
573;DHT22;271;51.114;13.780;2022-09-09T02:09:05;14.50;1.00
573;DHT22;271;51.114;13.780;2022-09-09T02:11:33;14.50;1.00
573;DHT22;271;51.114;13.780;2022-09-09T02:14:05;14.40;1.00
573;DHT22;271;51.114;13.780;2022-09-09T02:16:37;14.40;1.00
573;DHT22;271;51.114;13.780;2022-09-09T02:19:09;14.40;1.00
573;DHT22;271;51.114;13.780;2022-09-09T02:21:37;14.40;1.00
573;DHT22;271;51.114;13.780;2022-09-09T02:24:07;14.40;1.00
573;DHT22;271;51.114;13.780;2022-09-09T02:26:39;14.30;1.00
573;DHT22;271;51.114;13.780;2022-09-09T02:29:09;14.30;1.00
573;DHT22;271;51.114;13.780;2022-09-09T02:31:39;14.30;1.00
573;DHT22;271;51.114;13.780;2022-09-09T02:34:09;14.30;1.00
573;DHT22;271;51.114;13.780;2022-09-09T02:36:38;14.30;1.00
573;DHT22;271;51.114;13.780;2022-09-09T02:39:08;14.20;1.00
573;DHT22;271;51.114;13.780;2022-09-09T02:41:38;14.20;1.00
573;DHT22;271;51.114;13.780;2022-09-09T02:44:10;14.20;1.00
573;DHT22;271;51.114;13.780;2022-09-09T02:46:50;14.20;1.00
573;DHT22;271;51.114;13.780;2022-09-09T02:49:27;14.10;1.00
573;DHT22;271;51.114;13.780;2022-09-09T02:52:01;14.20;1.00
573;DHT22;271;51.114;13.780;2022-09-09T02:54:31;14.10;1.00
573;DHT22;271;51.114;13.780;2022-09-09T02:57:03;14.00;1.00
573;DHT22;271;51.114;13.780;2022-09-09T02:59:31;14.00;1.00
573;DHT22;271;51.114;13.780;2022-09-09T03:01:59;14.10;1.00
573;DHT22;271;51.114;13.780;2022-09-09T03:04:26;14.00;1.00
573;DHT22;271;51.114;13.780;2022-09-09T03:06:53;13.90;1.00
573;DHT22;271;51.114;13.780;2022-09-09T03:09:20;13.90;1.00
573;DHT22;271;51.114;13.780;2022-09-09T03:11:47;13.90;1.00
573;DHT22;271;51.114;13.780;2022-09-09T03:14:14;13.90;1.00
573;DHT22;271;51.114;13.780;2022-09-09T03:16:43;13.90;1.00
573;DHT22;271;51.114;13.780;2022-09-09T03:19:11;13.90;1.00
573;DHT22;271;51.114;13.780;2022-09-09T03:21:38;13.80;1.00
573;DHT22;271;51.114;13.780;2022-09-09T03:24:05;13.90;1.00
573;DHT22;271;51.114;13.780;2022-09-09T03:26:32;13.80;1.00
573;DHT22;271;51.114;13.780;2022-09-09T03:28:58;13.80;1.00
573;DHT22;271;51.114;13.780;2022-09-09T03:31:26;13.80;1.00
573;DHT22;271;51.114;13.780;2022-09-09T03:33:56;13.80;1.00
573;DHT22;271;51.114;13.780;2022-09-09T03:36:24;13.70;1.00
573;DHT22;271;51.114;13.780;2022-09-09T03:38:51;13.70;1.00
573;DHT22;271;51.114;13.780;2022-09-09T03:41:19;13.70;1.00
573;DHT22;271;51.114;13.780;2022-09-09T03:43:46;13.60;1.00
573;DHT22;271;51.114;13.780;2022-09-09T03:46:13;13.80;1.00
573;DHT22;271;51.114;13.780;2022-09-09T03:48:39;13.90;1.00
573;DHT22;271;51.114;13.780;2022-09-09T03:51:07;13.90;1.00
573;DHT22;271;51.114;13.780;2022-09-09T03:53:34;13.90;1.00
573;DHT22;271;51.114;13.780;2022-09-09T03:56:03;13.80;1.00
573;DHT22;271;51.114;13.780;2022-09-09T03:58:32;13.80;1.00
573;DHT22;271;51.114;13.780;2022-09-09T04:01:00;13.80;1.00
573;DHT22;271;51.114;13.780;2022-09-09T04:03:28;13.80;1.00
573;DHT22;271;51.114;13.780;2022-09-09T04:05:56;13.80;1.00
573;DHT22;271;51.114;13.780;2022-09-09T04:08:25;13.70;1.00
573;DHT22;271;51.114;13.780;2022-09-09T04:10:53;13.50;1.00
573;DHT22;271;51.114;13.780;2022-09-09T04:13:23;13.50;1.00
573;DHT22;271;51.114;13.780;2022-09-09T04:15:51;13.40;1.00
573;DHT22;271;51.114;13.780;2022-09-09T04:18:19;13.30;1.00
573;DHT22;271;51.114;13.780;2022-09-09T04:20:46;13.20;1.00
573;DHT22;271;51.114;13.780;2022-09-09T04:23:13;13.20;1.00
573;DHT22;271;51.114;13.780;2022-09-09T04:25:45;13.10;1.00
573;DHT22;271;51.114;13.780;2022-09-09T04:28:12;13.10;1.00
573;DHT22;271;51.114;13.780;2022-09-09T04:30:39;13.00;1.00
573;DHT22;271;51.114;13.780;2022-09-09T04:33:06;13.00;1.00
573;DHT22;271;51.114;13.780;2022-09-09T04:35:33;12.90;1.00
573;DHT22;271;51.114;13.780;2022-09-09T04:38:00;12.90;1.00
573;DHT22;271;51.114;13.780;2022-09-09T04:40:28;13.00;1.00
573;DHT22;271;51.114;13.780;2022-09-09T04:42:57;13.00;1.00
573;DHT22;271;51.114;13.780;2022-09-09T04:45:25;12.90;1.00
573;DHT22;271;51.114;13.780;2022-09-09T04:47:52;12.90;1.00
573;DHT22;271;51.114;13.780;2022-09-09T04:50:19;12.80;1.00
573;DHT22;271;51.114;13.780;2022-09-09T04:52:46;12.90;1.00
573;DHT22;271;51.114;13.780;2022-09-09T04:55:13;13.00;1.00
573;DHT22;271;51.114;13.780;2022-09-09T04:57:40;12.80;1.00
573;DHT22;271;51.114;13.780;2022-09-09T05:00:10;12.90;1.00
573;DHT22;271;51.114;13.780;2022-09-09T05:02:38;12.80;1.00
573;DHT22;271;51.114;13.780;2022-09-09T05:05:06;12.90;1.00
573;DHT22;271;51.114;13.780;2022-09-09T05:07:33;12.90;1.00
573;DHT22;271;51.114;13.780;2022-09-09T05:09:59;12.90;1.00
573;DHT22;271;51.114;13.780;2022-09-09T05:12:26;12.90;1.00
573;DHT22;271;51.114;13.780;2022-09-09T05:14:54;12.90;1.00
573;DHT22;271;51.114;13.780;2022-09-09T05:17:22;12.90;1.00
573;DHT22;271;51.114;13.780;2022-09-09T05:19:49;12.90;1.00
573;DHT22;271;51.114;13.780;2022-09-09T05:22:19;13.00;1.00
573;DHT22;271;51.114;13.780;2022-09-09T05:24:46;13.00;1.00
573;DHT22;271;51.114;13.780;2022-09-09T05:27:16;13.00;1.00
573;DHT22;271;51.114;13.780;2022-09-09T05:29:44;13.10;1.00
573;DHT22;271;51.114;13.780;2022-09-09T05:32:12;13.20;1.00
573;DHT22;271;51.114;13.780;2022-09-09T05:34:41;13.20;1.00
573;DHT22;271;51.114;13.780;2022-09-09T05:37:08;13.30;1.00
573;DHT22;271;51.114;13.780;2022-09-09T05:39:35;13.30;1.00
573;DHT22;271;51.114;13.780;2022-09-09T05:42:03;13.40;1.00
573;DHT22;271;51.114;13.780;2022-09-09T05:44:30;13.50;1.00
573;DHT22;271;51.114;13.780;2022-09-09T05:46:57;13.50;1.00
573;DHT22;271;51.114;13.780;2022-09-09T05:49:24;13.70;1.00
573;DHT22;271;51.114;13.780;2022-09-09T05:51:52;13.80;1.00
573;DHT22;271;51.114;13.780;2022-09-09T05:54:19;14.00;1.00
573;DHT22;271;51.114;13.780;2022-09-09T05:56:46;14.20;1.00
573;DHT22;271;51.114;13.780;2022-09-09T05:59:15;14.30;1.00
573;DHT22;271;51.114;13.780;2022-09-09T06:01:42;14.40;1.00
573;DHT22;271;51.114;13.780;2022-09-09T06:04:08;14.50;1.00
573;DHT22;271;51.114;13.780;2022-09-09T06:06:37;14.50;1.00
573;DHT22;271;51.114;13.780;2022-09-09T06:09:08;14.60;1.00
573;DHT22;271;51.114;13.780;2022-09-09T06:11:36;14.70;1.00
573;DHT22;271;51.114;13.780;2022-09-09T06:14:04;14.90;1.00
573;DHT22;271;51.114;13.780;2022-09-09T06:16:31;15.00;1.00
573;DHT22;271;51.114;13.780;2022-09-09T06:18:59;15.10;1.00
573;DHT22;271;51.114;13.780;2022-09-09T06:21:29;15.30;1.00
573;DHT22;271;51.114;13.780;2022-09-09T06:23:56;15.40;1.00
573;DHT22;271;51.114;13.780;2022-09-09T06:26:26;15.60;1.00
573;DHT22;271;51.114;13.780;2022-09-09T06:28:55;15.70;1.00
573;DHT22;271;51.114;13.780;2022-09-09T06:31:25;15.80;1.00
573;DHT22;271;51.114;13.780;2022-09-09T06:33:53;15.90;1.00
573;DHT22;271;51.114;13.780;2022-09-09T06:36:22;16.00;1.00
573;DHT22;271;51.114;13.780;2022-09-09T06:38:49;16.20;1.00
573;DHT22;271;51.114;13.780;2022-09-09T06:41:18;16.20;1.00
573;DHT22;271;51.114;13.780;2022-09-09T06:43:46;16.40;1.00
573;DHT22;271;51.114;13.780;2022-09-09T06:46:15;16.40;1.00
573;DHT22;271;51.114;13.780;2022-09-09T06:48:44;16.50;1.00
573;DHT22;271;51.114;13.780;2022-09-09T06:51:13;16.60;1.00
573;DHT22;271;51.114;13.780;2022-09-09T06:53:41;16.70;1.00
573;DHT22;271;51.114;13.780;2022-09-09T06:56:19;16.80;1.00
573;DHT22;271;51.114;13.780;2022-09-09T06:58:49;16.90;1.00
573;DHT22;271;51.114;13.780;2022-09-09T07:01:19;17.20;1.00
573;DHT22;271;51.114;13.780;2022-09-09T07:03:47;17.40;1.00
573;DHT22;271;51.114;13.780;2022-09-09T07:06:16;17.60;1.00
573;DHT22;271;51.114;13.780;2022-09-09T07:08:44;17.90;1.00
573;DHT22;271;51.114;13.780;2022-09-09T07:11:14;18.30;1.00
573;DHT22;271;51.114;13.780;2022-09-09T07:13:41;18.80;1.00
573;DHT22;271;51.114;13.780;2022-09-09T07:16:11;19.40;1.00
573;DHT22;271;51.114;13.780;2022-09-09T07:18:39;20.10;1.00
573;DHT22;271;51.114;13.780;2022-09-09T07:21:06;20.20;1.00
573;DHT22;271;51.114;13.780;2022-09-09T07:23:34;20.70;1.00
573;DHT22;271;51.114;13.780;2022-09-09T07:26:02;21.30;1.00
573;DHT22;271;51.114;13.780;2022-09-09T07:28:29;21.70;1.00
573;DHT22;271;51.114;13.780;2022-09-09T07:30:58;21.20;1.00
573;DHT22;271;51.114;13.780;2022-09-09T07:33:28;21.10;1.00
573;DHT22;271;51.114;13.780;2022-09-09T07:36:03;20.70;1.00
573;DHT22;271;51.114;13.780;2022-09-09T07:38:31;20.80;1.00
573;DHT22;271;51.114;13.780;2022-09-09T07:41:03;21.20;1.00
573;DHT22;271;51.114;13.780;2022-09-09T07:43:31;21.40;1.00
573;DHT22;271;51.114;13.780;2022-09-09T07:45:59;21.30;1.00
573;DHT22;271;51.114;13.780;2022-09-09T07:48:28;21.10;1.00
573;DHT22;271;51.114;13.780;2022-09-09T07:51:06;21.00;1.00
573;DHT22;271;51.114;13.780;2022-09-09T07:53:34;21.20;1.00
573;DHT22;271;51.114;13.780;2022-09-09T07:56:07;21.70;1.00
573;DHT22;271;51.114;13.780;2022-09-09T07:58:35;22.10;1.00
573;DHT22;271;51.114;13.780;2022-09-09T08:01:07;22.20;1.00
573;DHT22;271;51.114;13.780;2022-09-09T08:03:36;22.40;1.00
573;DHT22;271;51.114;13.780;2022-09-09T08:06:04;22.60;1.00
573;DHT22;271;51.114;13.780;2022-09-09T08:08:32;22.90;1.00
573;DHT22;271;51.114;13.780;2022-09-09T08:11:05;23.00;1.00
573;DHT22;271;51.114;13.780;2022-09-09T08:13:33;23.10;1.00
573;DHT22;271;51.114;13.780;2022-09-09T08:16:07;23.20;1.00
573;DHT22;271;51.114;13.780;2022-09-09T08:18:36;23.00;1.00
573;DHT22;271;51.114;13.780;2022-09-09T08:21:07;22.80;1.00
573;DHT22;271;51.114;13.780;2022-09-09T08:23:37;22.30;1.00
573;DHT22;271;51.114;13.780;2022-09-09T08:26:06;22.10;1.00
573;DHT22;271;51.114;13.780;2022-09-09T08:28:34;21.80;1.00
573;DHT22;271;51.114;13.780;2022-09-09T08:31:09;21.50;1.00
573;DHT22;271;51.114;13.780;2022-09-09T08:33:37;21.10;1.00
573;DHT22;271;51.114;13.780;2022-09-09T08:36:06;21.20;1.00
573;DHT22;271;51.114;13.780;2022-09-09T08:38:34;21.30;1.00
573;DHT22;271;51.114;13.780;2022-09-09T08:41:12;21.40;1.00
573;DHT22;271;51.114;13.780;2022-09-09T08:43:44;21.20;1.00
573;DHT22;271;51.114;13.780;2022-09-09T08:46:16;21.10;1.00
573;DHT22;271;51.114;13.780;2022-09-09T08:48:53;21.00;1.00
573;DHT22;271;51.114;13.780;2022-09-09T08:51:25;20.70;1.00
573;DHT22;271;51.114;13.780;2022-09-09T08:53:54;20.70;1.00
573;DHT22;271;51.114;13.780;2022-09-09T08:56:23;21.00;1.00
573;DHT22;271;51.114;13.780;2022-09-09T08:58:52;21.10;1.00
573;DHT22;271;51.114;13.780;2022-09-09T09:01:40;21.30;1.00
573;DHT22;271;51.114;13.780;2022-09-09T09:04:20;21.60;1.00
573;DHT22;271;51.114;13.780;2022-09-09T09:06:54;21.60;1.00
573;DHT22;271;51.114;13.780;2022-09-09T09:09:30;21.60;1.00
573;DHT22;271;51.114;13.780;2022-09-09T09:12:01;21.60;1.00
573;DHT22;271;51.114;13.780;2022-09-09T09:14:29;21.60;1.00
573;DHT22;271;51.114;13.780;2022-09-09T09:17:01;21.60;1.00
573;DHT22;271;51.114;13.780;2022-09-09T09:19:32;21.40;1.00
573;DHT22;271;51.114;13.780;2022-09-09T09:22:04;21.20;1.00
573;DHT22;271;51.114;13.780;2022-09-09T09:24:39;21.10;1.00
573;DHT22;271;51.114;13.780;2022-09-09T09:27:11;20.90;1.00
573;DHT22;271;51.114;13.780;2022-09-09T09:29:40;20.90;1.00
573;DHT22;271;51.114;13.780;2022-09-09T09:32:13;20.80;1.00
573;DHT22;271;51.114;13.780;2022-09-09T09:34:42;20.60;1.00
573;DHT22;271;51.114;13.780;2022-09-09T09:37:16;20.50;1.00
573;DHT22;271;51.114;13.780;2022-09-09T09:39:45;20.40;1.00
573;DHT22;271;51.114;13.780;2022-09-09T09:42:14;20.30;1.00
573;DHT22;271;51.114;13.780;2022-09-09T09:44:43;20.00;1.00
573;DHT22;271;51.114;13.780;2022-09-09T09:47:12;20.00;1.00
573;DHT22;271;51.114;13.780;2022-09-09T09:49:40;20.00;1.00
573;DHT22;271;51.114;13.780;2022-09-09T09:52:21;20.00;1.00
573;DHT22;271;51.114;13.780;2022-09-09T09:54:50;19.90;1.00
573;DHT22;271;51.114;13.780;2022-09-09T09:57:18;19.90;1.00
573;DHT22;271;51.114;13.780;2022-09-09T09:59:45;20.20;1.00
573;DHT22;271;51.114;13.780;2022-09-09T10:02:18;20.20;1.00
573;DHT22;271;51.114;13.780;2022-09-09T10:04:46;20.70;1.00
573;DHT22;271;51.114;13.780;2022-09-09T10:07:19;21.30;1.00
573;DHT22;271;51.114;13.780;2022-09-09T10:09:48;21.90;1.00
573;DHT22;271;51.114;13.780;2022-09-09T10:12:26;22.50;1.00
573;DHT22;271;51.114;13.780;2022-09-09T10:15:02;23.10;1.00
573;DHT22;271;51.114;13.780;2022-09-09T10:17:36;23.30;1.00
573;DHT22;271;51.114;13.780;2022-09-09T10:20:27;23.50;1.00
573;DHT22;271;51.114;13.780;2022-09-09T10:23:10;23.70;1.00
573;DHT22;271;51.114;13.780;2022-09-09T10:31:40;24.00;1.00
573;DHT22;271;51.114;13.780;2022-09-09T10:34:32;24.00;1.00
573;DHT22;271;51.114;13.780;2022-09-09T10:37:05;24.20;1.00
573;DHT22;271;51.114;13.780;2022-09-09T10:39:39;24.40;1.00
573;DHT22;271;51.114;13.780;2022-09-09T10:42:09;24.30;1.00
573;DHT22;271;51.114;13.780;2022-09-09T10:44:49;24.30;1.00
573;DHT22;271;51.114;13.780;2022-09-09T10:47:29;24.10;1.00
573;DHT22;271;51.114;13.780;2022-09-09T10:50:12;24.00;1.00
573;DHT22;271;51.114;13.780;2022-09-09T10:52:50;23.80;1.00
573;DHT22;271;51.114;13.780;2022-09-09T10:55:23;23.70;1.00
573;DHT22;271;51.114;13.780;2022-09-09T10:57:53;23.70;1.00
573;DHT22;271;51.114;13.780;2022-09-09T11:00:21;23.70;1.00
573;DHT22;271;51.114;13.780;2022-09-09T11:02:51;23.50;1.00
573;DHT22;271;51.114;13.780;2022-09-09T11:05:20;23.30;1.00
573;DHT22;271;51.114;13.780;2022-09-09T11:07:53;23.20;1.00
573;DHT22;271;51.114;13.780;2022-09-09T11:10:28;23.30;1.00
573;DHT22;271;51.114;13.780;2022-09-09T11:13:01;23.20;1.00
573;DHT22;271;51.114;13.780;2022-09-09T11:15:37;23.00;1.00
573;DHT22;271;51.114;13.780;2022-09-09T11:18:08;22.90;1.00
573;DHT22;271;51.114;13.780;2022-09-09T11:20:36;22.80;1.00
573;DHT22;271;51.114;13.780;2022-09-09T11:23:09;22.60;1.00
573;DHT22;271;51.114;13.780;2022-09-09T11:25:41;22.30;1.00
573;DHT22;271;51.114;13.780;2022-09-09T11:28:32;22.30;1.00
573;DHT22;271;51.114;13.780;2022-09-09T11:31:17;22.20;1.00
573;DHT22;271;51.114;13.780;2022-09-09T11:34:07;21.90;1.00
573;DHT22;271;51.114;13.780;2022-09-09T11:37:17;21.70;1.00
573;DHT22;271;51.114;13.780;2022-09-09T11:40:00;21.60;1.00
573;DHT22;271;51.114;13.780;2022-09-09T11:42:32;21.50;1.00
573;DHT22;271;51.114;13.780;2022-09-09T11:45:09;21.30;1.00
573;DHT22;271;51.114;13.780;2022-09-09T11:47:38;21.30;1.00
573;DHT22;271;51.114;13.780;2022-09-09T11:50:10;21.20;1.00
573;DHT22;271;51.114;13.780;2022-09-09T11:53:05;21.10;1.00
573;DHT22;271;51.114;13.780;2022-09-09T11:55:34;21.10;1.00
573;DHT22;271;51.114;13.780;2022-09-09T11:58:04;21.00;1.00
573;DHT22;271;51.114;13.780;2022-09-09T12:00:34;20.90;1.00
573;DHT22;271;51.114;13.780;2022-09-09T12:03:02;20.50;1.00
573;DHT22;271;51.114;13.780;2022-09-09T12:05:38;20.40;1.00
573;DHT22;271;51.114;13.780;2022-09-09T12:08:05;20.30;1.00
573;DHT22;271;51.114;13.780;2022-09-09T12:10:33;20.20;1.00
573;DHT22;271;51.114;13.780;2022-09-09T12:13:15;20.20;1.00
573;DHT22;271;51.114;13.780;2022-09-09T12:15:47;20.20;1.00
573;DHT22;271;51.114;13.780;2022-09-09T12:18:21;20.30;1.00
573;DHT22;271;51.114;13.780;2022-09-09T12:20:54;20.40;1.00
573;DHT22;271;51.114;13.780;2022-09-09T12:23:30;20.40;1.00
573;DHT22;271;51.114;13.780;2022-09-09T12:26:14;20.40;1.00
573;DHT22;271;51.114;13.780;2022-09-09T12:28:55;20.40;1.00
573;DHT22;271;51.114;13.780;2022-09-09T12:31:34;20.50;1.00
573;DHT22;271;51.114;13.780;2022-09-09T12:34:11;20.60;1.00
573;DHT22;271;51.114;13.780;2022-09-09T12:36:42;20.60;1.00
573;DHT22;271;51.114;13.780;2022-09-09T12:39:17;20.60;1.00
573;DHT22;271;51.114;13.780;2022-09-09T12:41:51;20.60;1.00
573;DHT22;271;51.114;13.780;2022-09-09T12:44:24;20.60;1.00
573;DHT22;271;51.114;13.780;2022-09-09T12:46:54;20.60;1.00
573;DHT22;271;51.114;13.780;2022-09-09T12:49:27;20.70;1.00
573;DHT22;271;51.114;13.780;2022-09-09T12:51:55;20.70;1.00
573;DHT22;271;51.114;13.780;2022-09-09T12:54:24;20.90;1.00
573;DHT22;271;51.114;13.780;2022-09-09T12:56:51;21.00;1.00
573;DHT22;271;51.114;13.780;2022-09-09T12:59:24;21.10;1.00
573;DHT22;271;51.114;13.780;2022-09-09T13:01:58;21.10;1.00
573;DHT22;271;51.114;13.780;2022-09-09T13:04:25;21.10;1.00
573;DHT22;271;51.114;13.780;2022-09-09T13:06:51;21.20;1.00
573;DHT22;271;51.114;13.780;2022-09-09T13:09:19;21.30;1.00
573;DHT22;271;51.114;13.780;2022-09-09T13:11:50;21.50;1.00
573;DHT22;271;51.114;13.780;2022-09-09T13:14:21;21.50;1.00
573;DHT22;271;51.114;13.780;2022-09-09T13:16:57;21.60;1.00
573;DHT22;271;51.114;13.780;2022-09-09T13:19:25;21.80;1.00
573;DHT22;271;51.114;13.780;2022-09-09T13:21:54;22.00;1.00
573;DHT22;271;51.114;13.780;2022-09-09T13:24:27;22.10;1.00
573;DHT22;271;51.114;13.780;2022-09-09T13:26:56;22.30;1.00
573;DHT22;271;51.114;13.780;2022-09-09T13:29:23;22.50;1.00
573;DHT22;271;51.114;13.780;2022-09-09T13:31:50;22.70;1.00
573;DHT22;271;51.114;13.780;2022-09-09T13:34:31;22.90;1.00
573;DHT22;271;51.114;13.780;2022-09-09T13:37:00;22.90;1.00
573;DHT22;271;51.114;13.780;2022-09-09T13:39:29;22.90;1.00
573;DHT22;271;51.114;13.780;2022-09-09T13:41:55;23.40;1.00
573;DHT22;271;51.114;13.780;2022-09-09T13:44:25;23.70;1.00
573;DHT22;271;51.114;13.780;2022-09-09T13:47:03;23.70;1.00
573;DHT22;271;51.114;13.780;2022-09-09T13:49:32;23.40;1.00
573;DHT22;271;51.114;13.780;2022-09-09T13:52:05;23.20;1.00
573;DHT22;271;51.114;13.780;2022-09-09T13:54:33;23.00;1.00
573;DHT22;271;51.114;13.780;2022-09-09T13:57:00;22.80;1.00
573;DHT22;271;51.114;13.780;2022-09-09T13:59:28;22.60;1.00
573;DHT22;271;51.114;13.780;2022-09-09T14:01:54;22.50;1.00
573;DHT22;271;51.114;13.780;2022-09-09T14:04:22;22.40;1.00
573;DHT22;271;51.114;13.780;2022-09-09T14:06:50;22.20;1.00
573;DHT22;271;51.114;13.780;2022-09-09T14:09:18;22.10;1.00
573;DHT22;271;51.114;13.780;2022-09-09T14:11:45;22.00;1.00
573;DHT22;271;51.114;13.780;2022-09-09T14:14:12;22.00;1.00
573;DHT22;271;51.114;13.780;2022-09-09T14:16:38;21.90;1.00
573;DHT22;271;51.114;13.780;2022-09-09T14:19:05;21.80;1.00
573;DHT22;271;51.114;13.780;2022-09-09T14:21:32;21.80;1.00
573;DHT22;271;51.114;13.780;2022-09-09T14:24:00;21.80;1.00
573;DHT22;271;51.114;13.780;2022-09-09T14:26:27;21.80;1.00
573;DHT22;271;51.114;13.780;2022-09-09T14:28:55;21.80;1.00
573;DHT22;271;51.114;13.780;2022-09-09T14:31:22;22.00;1.00
573;DHT22;271;51.114;13.780;2022-09-09T14:33:49;22.10;1.00
573;DHT22;271;51.114;13.780;2022-09-09T14:36:16;22.10;1.00
573;DHT22;271;51.114;13.780;2022-09-09T14:38:43;22.10;1.00
573;DHT22;271;51.114;13.780;2022-09-09T14:41:13;22.10;1.00
573;DHT22;271;51.114;13.780;2022-09-09T14:43:42;22.10;1.00
573;DHT22;271;51.114;13.780;2022-09-09T14:46:11;22.10;1.00
573;DHT22;271;51.114;13.780;2022-09-09T14:48:39;22.10;1.00
573;DHT22;271;51.114;13.780;2022-09-09T14:51:13;22.20;1.00
573;DHT22;271;51.114;13.780;2022-09-09T14:53:41;22.20;1.00
573;DHT22;271;51.114;13.780;2022-09-09T14:56:11;22.20;1.00
573;DHT22;271;51.114;13.780;2022-09-09T14:58:38;22.20;1.00
573;DHT22;271;51.114;13.780;2022-09-09T15:01:07;22.20;1.00
573;DHT22;271;51.114;13.780;2022-09-09T15:03:35;22.20;1.00
573;DHT22;271;51.114;13.780;2022-09-09T15:06:06;22.20;1.00
573;DHT22;271;51.114;13.780;2022-09-09T15:08:35;22.20;1.00
573;DHT22;271;51.114;13.780;2022-09-09T15:11:02;22.20;1.00
573;DHT22;271;51.114;13.780;2022-09-09T15:13:31;22.20;1.00
573;DHT22;271;51.114;13.780;2022-09-09T15:16:04;22.10;1.00
573;DHT22;271;51.114;13.780;2022-09-09T15:18:31;22.10;1.00
573;DHT22;271;51.114;13.780;2022-09-09T15:20:58;22.10;1.00
573;DHT22;271;51.114;13.780;2022-09-09T15:23:25;22.00;1.00
573;DHT22;271;51.114;13.780;2022-09-09T15:25:53;22.00;1.00
573;DHT22;271;51.114;13.780;2022-09-09T15:28:21;22.10;1.00
573;DHT22;271;51.114;13.780;2022-09-09T15:30:50;22.10;1.00
573;DHT22;271;51.114;13.780;2022-09-09T15:33:17;22.10;1.00
573;DHT22;271;51.114;13.780;2022-09-09T15:35:44;22.10;1.00
573;DHT22;271;51.114;13.780;2022-09-09T15:38:11;22.20;1.00
573;DHT22;271;51.114;13.780;2022-09-09T15:40:39;22.30;1.00
573;DHT22;271;51.114;13.780;2022-09-09T15:43:09;22.30;1.00
573;DHT22;271;51.114;13.780;2022-09-09T15:45:37;22.30;1.00
573;DHT22;271;51.114;13.780;2022-09-09T15:48:05;22.30;1.00
573;DHT22;271;51.114;13.780;2022-09-09T15:50:33;22.30;1.00
573;DHT22;271;51.114;13.780;2022-09-09T15:53:00;22.20;1.00
573;DHT22;271;51.114;13.780;2022-09-09T15:55:27;22.20;1.00
573;DHT22;271;51.114;13.780;2022-09-09T15:57:55;22.20;1.00
573;DHT22;271;51.114;13.780;2022-09-09T16:00:23;22.20;1.00
573;DHT22;271;51.114;13.780;2022-09-09T16:02:50;22.10;1.00
573;DHT22;271;51.114;13.780;2022-09-09T16:05:19;22.10;1.00
573;DHT22;271;51.114;13.780;2022-09-09T16:07:46;22.10;1.00
573;DHT22;271;51.114;13.780;2022-09-09T16:10:13;21.90;1.00
573;DHT22;271;51.114;13.780;2022-09-09T16:12:40;21.70;1.00
573;DHT22;271;51.114;13.780;2022-09-09T16:15:06;21.60;1.00
573;DHT22;271;51.114;13.780;2022-09-09T16:17:33;21.60;1.00
573;DHT22;271;51.114;13.780;2022-09-09T16:20:04;21.60;1.00
573;DHT22;271;51.114;13.780;2022-09-09T16:22:35;21.40;1.00
573;DHT22;271;51.114;13.780;2022-09-09T16:25:02;21.40;1.00
573;DHT22;271;51.114;13.780;2022-09-09T16:27:29;21.30;1.00
573;DHT22;271;51.114;13.780;2022-09-09T16:29:55;21.20;1.00
573;DHT22;271;51.114;13.780;2022-09-09T16:32:22;21.20;1.00
573;DHT22;271;51.114;13.780;2022-09-09T16:34:49;21.10;1.00
573;DHT22;271;51.114;13.780;2022-09-09T16:37:17;21.10;1.00
573;DHT22;271;51.114;13.780;2022-09-09T16:39:46;21.10;1.00
573;DHT22;271;51.114;13.780;2022-09-09T16:42:12;20.90;1.00
573;DHT22;271;51.114;13.780;2022-09-09T16:44:39;21.00;1.00
573;DHT22;271;51.114;13.780;2022-09-09T16:47:12;20.90;1.00
573;DHT22;271;51.114;13.780;2022-09-09T16:49:39;20.90;1.00
573;DHT22;271;51.114;13.780;2022-09-09T16:52:06;20.80;1.00
573;DHT22;271;51.114;13.780;2022-09-09T16:54:33;20.70;1.00
573;DHT22;271;51.114;13.780;2022-09-09T16:57:01;20.70;1.00
573;DHT22;271;51.114;13.780;2022-09-09T16:59:28;20.70;1.00
573;DHT22;271;51.114;13.780;2022-09-09T17:01:55;20.70;1.00